Time;durP1;ratioP1;P1;durP2;ratioP2;P2;SDS_P1;SDS_P2;PMS_P1;PMS_P2;Temp;Humidity;BMP_temperature;BMP_pressure;BME280_temperature;BME280_humidity;BME280_pressure;Samples;Min_cycle;Max_cycle;Signal;HPM_P1;HPM_P2
2022/01/10 00:00:08;;;;;;;82.28;34.17;;;;;;;;;;4936489;29;20036;-75
2022/01/10 00:02:34;;;;;;;78.75;29.90;;;;;;;;;;4938215;29;20421;-74
2022/01/10 00:05:00;;;;;;;83.65;30.08;;;;;;;;;;4937909;29;20031;-73
2022/01/10 00:07:26;;;;;;;92.45;36.17;;;;;;;;;;4936106;29;20123;-74
2022/01/10 00:09:52;;;;;;;86.50;36.45;;;;;;;;;;4937299;29;20527;-74
2022/01/10 00:12:18;;;;;;;80.90;36.47;;;;;;;;;;4936009;29;20094;-75
2022/01/10 00:14:45;;;;;;;90.25;36.55;;;;;;;;;;4937186;29;20028;-75
2022/01/10 00:17:11;;;;;;;94.57;38.58;;;;;;;;;;4935958;29;20023;-76
2022/01/10 00:19:37;;;;;;;91.25;38.00;;;;;;;;;;4937201;29;20416;-76
2022/01/10 00:22:06;;;;;;;94.57;38.30;;;;;;;;;;4936657;29;20047;-74
2022/01/10 00:24:33;;;;;;;78.30;31.67;;;;;;;;;;4935847;29;20035;-74
2022/01/10 00:26:59;;;;;;;83.05;35.55;;;;;;;;;;4935734;29;20532;-76
2022/01/10 00:29:25;;;;;;;90.07;35.72;;;;;;;;;;4935701;29;20036;-73
2022/01/10 00:31:51;;;;;;;92.43;37.33;;;;;;;;;;4936409;29;20087;-69
2022/01/10 00:34:18;;;;;;;93.32;38.10;;;;;;;;;;4936805;29;20458;-76
2022/01/10 00:36:45;;;;;;;92.18;37.38;;;;;;;;;;4936804;29;20032;-74
2022/01/10 00:39:11;;;;;;;99.13;39.17;;;;;;;;;;4935492;29;20110;-73
2022/01/10 00:41:37;;;;;;;104.25;38.67;;;;;;;;;;4935513;29;20038;-74
2022/01/10 00:44:04;;;;;;;100.10;38.85;;;;;;;;;;4935493;29;20032;-70
2022/01/10 00:46:30;;;;;;;87.10;38.15;;;;;;;;;;4936974;29;20370;-76
2022/01/10 00:48:56;;;;;;;94.60;38.97;;;;;;;;;;4935392;29;20441;-76
2022/01/10 00:51:23;;;;;;;96.13;37.47;;;;;;;;;;4936581;29;20536;-76
2022/01/10 00:53:51;;;;;;;94.28;39.13;;;;;;;;;;4936536;29;20500;-72
2022/01/10 00:56:17;;;;;;;88.45;33.08;;;;;;;;;;4935217;29;20035;-74
2022/01/10 00:58:44;;;;;;;92.15;36.20;;;;;;;;;;4935227;29;20082;-74
2022/01/10 01:01:10;;;;;;;93.70;37.38;;;;;;;;;;4936691;29;20111;-74
2022/01/10 01:03:37;;;;;;;102.38;38.45;;;;;;;;;;4935165;29;20043;-74
2022/01/10 01:06:03;;;;;;;97.78;39.60;;;;;;;;;;4935152;29;20469;-72
2022/01/10 01:08:32;;;;;;;90.60;38.30;;;;;;;;;;4936825;29;20238;-74
2022/01/10 01:11:34;;;;;;;93.13;37.42;;;;;;;;;;4935118;29;20122;-73
2022/01/10 01:14:00;;;;;;;81.97;34.17;;;;;;;;;;4936180;29;20043;-73
2022/01/10 01:16:46;;;;;;;90.30;38.90;;;;;;;;;;4937105;29;20043;-73
2022/01/10 01:24:27;;;;;;;95.82;36.80;;;;;;;;;;4936515;29;20039;-74
2022/01/10 01:26:53;;;;;;;94.13;38.40;;;;;;;;;;4936167;29;20063;-74
2022/01/10 01:29:24;;;;;;;78.13;35.00;;;;;;;;;;4934913;29;20028;-73
2022/01/10 01:31:51;;;;;;;91.40;38.55;;;;;;;;;;4934951;29;20036;-76
2022/01/10 01:34:18;;;;;;;97.22;39.08;;;;;;;;;;4938433;29;20083;-73
2022/01/10 01:36:47;;;;;;;86.00;35.55;;;;;;;;;;4942137;29;20469;-73
2022/01/10 01:39:21;;;;;;;98.50;40.53;;;;;;;;;;4949057;29;20094;-73
2022/01/10 01:41:49;;;;;;;95.57;37.13;;;;;;;;;;4938677;29;20135;-76
2022/01/10 01:44:15;;;;;;;78.60;32.53;;;;;;;;;;4939892;29;20064;-73
2022/01/10 01:46:42;;;;;;;80.85;32.20;;;;;;;;;;4938672;29;20469;-76
2022/01/10 01:49:09;;;;;;;91.78;37.38;;;;;;;;;;4939864;29;20529;-75
2022/01/10 01:51:35;;;;;;;94.28;37.30;;;;;;;;;;4939798;29;20078;-72
2022/01/10 01:54:02;;;;;;;91.05;37.20;;;;;;;;;;4939709;29;20107;-74
2022/01/10 01:56:28;;;;;;;90.72;36.95;;;;;;;;;;4939697;29;20465;-74
2022/01/10 01:58:55;;;;;;;93.63;38.50;;;;;;;;;;4938428;29;20032;-74
2022/01/10 02:01:23;;;;;;;85.90;36.13;;;;;;;;;;4940006;29;20031;-75
2022/01/10 02:03:49;;;;;;;94.32;37.30;;;;;;;;;;4938406;29;20059;-73
2022/01/10 02:06:16;;;;;;;89.80;37.15;;;;;;;;;;4939588;29;20035;-73
2022/01/10 02:08:43;;;;;;;86.47;36.17;;;;;;;;;;4938321;29;20023;-73
2022/01/10 02:11:10;;;;;;;86.03;38.33;;;;;;;;;;4938256;29;20036;-73
2022/01/10 02:13:37;;;;;;;90.63;36.70;;;;;;;;;;4938149;29;20058;-76
2022/01/10 02:16:05;;;;;;;93.88;37.45;;;;;;;;;;4939394;29;20570;-73
2022/01/10 02:18:32;;;;;;;85.03;36.20;;;;;;;;;;4938838;29;20024;-73
2022/01/10 02:21:00;;;;;;;89.85;37.72;;;;;;;;;;4947113;29;20114;-74
2022/01/10 02:23:27;;;;;;;95.95;38.60;;;;;;;;;;4954067;29;20388;-76
2022/01/10 02:25:54;;;;;;;91.70;39.88;;;;;;;;;;4939233;29;20440;-72
2022/01/10 02:28:20;;;;;;;84.00;35.13;;;;;;;;;;4953928;29;20020;-74
2022/01/10 02:30:46;;;;;;;93.60;35.58;;;;;;;;;;4953768;29;20024;-73
2022/01/10 02:33:13;;;;;;;80.30;32.53;;;;;;;;;;4954243;29;20030;-75
2022/01/10 02:36:07;;;;;;;84.18;34.30;;;;;;;;;;4939591;29;20028;-74
2022/01/10 02:38:30;;;;;;;85.28;35.25;;;;;;;;;;4939712;29;20133;-76
2022/01/10 02:40:57;;;;;;;89.47;37.30;;;;;;;;;;4938819;29;20091;-76
2022/01/10 02:43:24;;;;;;;78.60;32.97;;;;;;;;;;4938919;29;20385;-73
2022/01/10 02:45:50;;;;;;;83.32;34.17;;;;;;;;;;4953536;29;20031;-74
2022/01/10 02:48:16;;;;;;;90.78;35.58;;;;;;;;;;4938800;29;20036;-76
2022/01/10 02:50:42;;;;;;;82.25;34.10;;;;;;;;;;4938734;29;20028;-75
2022/01/10 02:53:09;;;;;;;98.20;37.90;;;;;;;;;;4953446;29;20505;-71
2022/01/10 02:55:35;;;;;;;99.30;37.35;;;;;;;;;;4939297;29;20032;-74
2022/01/10 02:58:03;;;;;;;91.90;35.50;;;;;;;;;;4938671;29;20035;-74
2022/01/10 03:00:29;;;;;;;92.43;38.30;;;;;;;;;;4953241;29;20456;-74
2022/01/10 03:02:56;;;;;;;100.03;41.47;;;;;;;;;;4939165;29;20036;-73
2022/01/10 03:05:23;;;;;;;102.47;40.13;;;;;;;;;;4953251;29;20597;-74
2022/01/10 03:07:50;;;;;;;99.32;38.58;;;;;;;;;;4939119;29;20047;-74
2022/01/10 03:10:16;;;;;;;97.35;39.50;;;;;;;;;;4953290;29;20032;-73
2022/01/10 03:12:43;;;;;;;94.03;37.97;;;;;;;;;;4953145;29;20453;-75
2022/01/10 03:15:10;;;;;;;88.07;37.05;;;;;;;;;;4953115;29;20032;-75
2022/01/10 03:17:37;;;;;;;92.10;33.67;;;;;;;;;;4942394;29;20032;-75
2022/01/10 03:20:04;;;;;;;96.55;39.50;;;;;;;;;;4959788;29;20110;-75
2022/01/10 03:22:31;;;;;;;93.40;36.58;;;;;;;;;;4938716;29;20438;-74
2022/01/10 03:24:58;;;;;;;93.95;36.53;;;;;;;;;;4952909;29;20024;-72
2022/01/10 03:27:24;;;;;;;92.50;38.50;;;;;;;;;;4952853;29;20118;-73
2022/01/10 03:29:51;;;;;;;89.35;36.05;;;;;;;;;;4952816;29;20473;-74
2022/01/10 03:32:17;;;;;;;90.85;38.55;;;;;;;;;;4952760;29;20082;-76
2022/01/10 03:34:43;;;;;;;96.32;33.85;;;;;;;;;;4952692;29;20031;-71
2022/01/10 03:37:10;;;;;;;97.20;39.13;;;;;;;;;;4952617;29;20028;-76
2022/01/10 03:39:36;;;;;;;91.63;35.15;;;;;;;;;;4952598;29;20032;-73
2022/01/10 03:42:03;;;;;;;88.45;35.42;;;;;;;;;;4952477;29;20481;-76
2022/01/10 03:44:29;;;;;;;97.15;38.80;;;;;;;;;;4937795;29;20019;-75
2022/01/10 03:46:56;;;;;;;93.38;38.45;;;;;;;;;;4952461;29;20067;-73
2022/01/10 03:49:23;;;;;;;85.47;33.40;;;;;;;;;;4952501;29;20442;-74
2022/01/10 03:51:49;;;;;;;97.47;39.60;;;;;;;;;;4952451;29;20031;-74
2022/01/10 03:54:16;;;;;;;103.57;40.17;;;;;;;;;;4952259;29;20091;-76
2022/01/10 03:56:42;;;;;;;94.85;39.92;;;;;;;;;;4936933;29;20032;-75
2022/01/10 03:59:08;;;;;;;94.20;38.53;;;;;;;;;;4938611;29;20111;-74
2022/01/10 04:01:38;;;;;;;99.70;39.13;;;;;;;;;;4952185;29;20047;-74
2022/01/10 04:04:04;;;;;;;87.60;34.65;;;;;;;;;;4952220;29;20035;-75
2022/01/10 04:06:30;;;;;;;98.25;39.80;;;;;;;;;;4952337;29;20106;-74
2022/01/10 04:08:57;;;;;;;108.75;43.97;;;;;;;;;;4937385;29;20108;-76
2022/01/10 04:11:23;;;;;;;121.55;46.65;;;;;;;;;;4937867;29;20361;-74
2022/01/10 04:13:49;;;;;;;117.40;43.78;;;;;;;;;;4952046;29;20032;-73
2022/01/10 04:16:15;;;;;;;108.93;43.35;;;;;;;;;;4951935;29;20027;-74
2022/01/10 04:18:41;;;;;;;107.03;41.38;;;;;;;;;;4952032;29;20075;-75
2022/01/10 04:21:07;;;;;;;99.88;35.67;;;;;;;;;;4951595;29;20489;-74
2022/01/10 04:23:34;;;;;;;109.43;41.17;;;;;;;;;;4951793;29;20027;-73
2022/01/10 04:26:00;;;;;;;91.65;39.22;;;;;;;;;;4937557;29;20032;-74
2022/01/10 04:28:26;;;;;;;85.38;32.33;;;;;;;;;;4951822;29;20024;-76
2022/01/10 04:30:52;;;;;;;100.55;38.10;;;;;;;;;;4937456;29;20035;-74
2022/01/10 04:33:20;;;;;;;83.15;33.78;;;;;;;;;;4951653;29;20027;-76
2022/01/10 04:35:47;;;;;;;89.03;38.42;;;;;;;;;;4937021;29;20124;-74
2022/01/10 04:38:13;;;;;;;94.90;38.45;;;;;;;;;;4951639;29;20031;-74
2022/01/10 04:40:39;;;;;;;90.85;38.05;;;;;;;;;;4951541;29;20040;-73
2022/01/10 04:43:06;;;;;;;90.28;38.88;;;;;;;;;;4951452;29;20477;-74
2022/01/10 04:45:32;;;;;;;95.90;32.63;;;;;;;;;;4951596;29;20028;-73
2022/01/10 04:47:58;;;;;;;94.05;39.00;;;;;;;;;;4951432;29;20035;-76
2022/01/10 04:52:53;;;;;;;92.88;40.40;;;;;;;;;;4936701;29;20405;-74
2022/01/10 04:55:20;;;;;;;80.15;32.35;;;;;;;;;;4936707;29;20031;-74
2022/01/10 04:57:46;;;;;;;82.22;32.40;;;;;;;;;;4941034;29;20043;-74
2022/01/10 05:00:14;;;;;;;91.63;33.05;;;;;;;;;;4945292;29;20035;-73
2022/01/10 05:02:44;;;;;;;87.38;34.08;;;;;;;;;;4951255;29;20479;-75
2022/01/10 05:05:10;;;;;;;92.22;34.17;;;;;;;;;;4951142;29;20024;-74
2022/01/10 05:07:36;;;;;;;93.35;34.97;;;;;;;;;;4950991;28;20027;-75
2022/01/10 05:10:02;;;;;;;96.97;38.88;;;;;;;;;;4951039;29;20031;-70
2022/01/10 05:12:29;;;;;;;89.88;38.10;;;;;;;;;;4936540;29;20358;-76
2022/01/10 05:14:55;;;;;;;94.60;37.08;;;;;;;;;;4936396;29;20031;-74
2022/01/10 05:17:23;;;;;;;95.82;34.05;;;;;;;;;;4951034;29;20078;-73
2022/01/10 05:19:50;;;;;;;101.40;40.20;;;;;;;;;;4935904;29;20131;-75
2022/01/10 05:22:16;;;;;;;106.30;41.72;;;;;;;;;;4950967;29;20044;-77
2022/01/10 05:24:43;;;;;;;105.88;41.20;;;;;;;;;;4936484;29;20024;-74
2022/01/10 05:27:09;;;;;;;105.57;42.63;;;;;;;;;;4950939;29;20031;-72
2022/01/10 05:29:35;;;;;;;112.22;45.45;;;;;;;;;;4936108;29;20075;-74
2022/01/10 05:32:02;;;;;;;101.93;38.55;;;;;;;;;;4936414;29;20425;-75
2022/01/10 05:34:30;;;;;;;120.97;47.03;;;;;;;;;;4936676;29;20034;-74
2022/01/10 05:36:56;;;;;;;109.03;41.35;;;;;;;;;;4950790;29;20477;-76
2022/01/10 05:39:22;;;;;;;105.03;42.65;;;;;;;;;;4936109;29;20024;-76
2022/01/10 05:41:49;;;;;;;95.38;35.83;;;;;;;;;;4936450;29;20401;-72
2022/01/10 05:44:15;;;;;;;101.20;37.25;;;;;;;;;;4950764;29;20094;-75
2022/01/10 05:46:42;;;;;;;84.05;33.83;;;;;;;;;;4950731;29;20062;-74
2022/01/10 05:49:10;;;;;;;88.40;33.88;;;;;;;;;;4950742;29;20023;-74
2022/01/10 05:51:37;;;;;;;96.88;39.05;;;;;;;;;;4950719;29;20400;-76
2022/01/10 05:54:03;;;;;;;79.85;34.15;;;;;;;;;;4936192;29;20444;-74
2022/01/10 05:56:30;;;;;;;107.00;40.63;;;;;;;;;;4950562;29;20441;-73
2022/01/10 05:58:56;;;;;;;86.88;33.88;;;;;;;;;;4950651;29;20115;-74
2022/01/10 06:01:22;;;;;;;92.30;39.10;;;;;;;;;;4950496;29;20039;-74
2022/01/10 06:03:48;;;;;;;92.28;36.03;;;;;;;;;;4950593;29;20028;-76
2022/01/10 06:06:15;;;;;;;96.82;38.83;;;;;;;;;;4936388;29;20083;-73
2022/01/10 06:08:41;;;;;;;89.20;34.92;;;;;;;;;;4950572;29;20079;-76
2022/01/10 06:11:07;;;;;;;92.20;38.50;;;;;;;;;;4935747;29;20034;-75
2022/01/10 06:13:33;;;;;;;90.13;33.22;;;;;;;;;;4935511;29;20020;-74
2022/01/10 06:15:59;;;;;;;91.38;32.95;;;;;;;;;;4932161;29;20028;-74
2022/01/10 06:18:25;;;;;;;96.30;38.08;;;;;;;;;;4933434;29;20516;-74
2022/01/10 06:20:52;;;;;;;90.15;35.08;;;;;;;;;;4933852;29;20048;-74
2022/01/10 06:23:18;;;;;;;94.15;40.33;;;;;;;;;;4934515;29;20020;-72
2022/01/10 06:25:44;;;;;;;88.47;35.90;;;;;;;;;;4934542;29;20473;-74
2022/01/10 06:28:10;;;;;;;91.78;39.50;;;;;;;;;;4919977;29;20151;-73
2022/01/10 06:30:36;;;;;;;95.18;38.35;;;;;;;;;;4934718;29;20032;-74
2022/01/10 06:33:02;;;;;;;99.53;39.03;;;;;;;;;;4937810;29;20111;-74
2022/01/10 06:35:28;;;;;;;89.05;36.03;;;;;;;;;;4937602;29;20350;-74
2022/01/10 06:37:55;;;;;;;88.32;36.35;;;;;;;;;;4937600;29;20378;-74
2022/01/10 06:40:21;;;;;;;87.93;37.25;;;;;;;;;;4941260;29;20084;-75
2022/01/10 06:42:47;;;;;;;97.32;38.20;;;;;;;;;;4948140;29;20099;-74
2022/01/10 06:45:14;;;;;;;95.88;37.85;;;;;;;;;;4937426;29;20401;-74
2022/01/10 06:47:40;;;;;;;88.13;36.45;;;;;;;;;;4937496;29;20027;-75
2022/01/10 06:50:07;;;;;;;82.22;37.47;;;;;;;;;;4938623;29;20051;-75
2022/01/10 06:52:33;;;;;;;92.80;36.53;;;;;;;;;;4937309;29;20437;-73
2022/01/10 06:55:00;;;;;;;90.63;37.55;;;;;;;;;;4937323;29;20035;-74
2022/01/10 06:57:26;;;;;;;94.88;39.05;;;;;;;;;;4937332;29;20035;-75
2022/01/10 06:59:52;;;;;;;99.28;39.20;;;;;;;;;;4937357;29;20496;-74
2022/01/10 07:02:19;;;;;;;87.18;37.13;;;;;;;;;;4936737;29;20043;-75
2022/01/10 07:04:45;;;;;;;101.03;38.65;;;;;;;;;;4937228;29;20063;-74
2022/01/10 07:07:11;;;;;;;94.35;39.60;;;;;;;;;;4937204;29;20127;-73
2022/01/10 07:09:37;;;;;;;95.18;38.08;;;;;;;;;;4933830;29;20030;-74
2022/01/10 07:12:04;;;;;;;99.28;39.28;;;;;;;;;;4933859;29;20036;-75
2022/01/10 07:14:32;;;;;;;86.25;34.47;;;;;;;;;;4933827;29;20024;-73
2022/01/10 07:16:58;;;;;;;84.55;32.53;;;;;;;;;;4933945;29;20477;-70
2022/01/10 07:19:25;;;;;;;82.75;36.45;;;;;;;;;;4933629;29;20032;-73
2022/01/10 07:21:51;;;;;;;85.25;36.92;;;;;;;;;;4902370;29;20131;-72
2022/01/10 07:24:18;;;;;;;80.22;32.13;;;;;;;;;;4902004;29;20528;-75
2022/01/10 07:26:44;;;;;;;90.15;38.60;;;;;;;;;;4901917;29;20041;-73
2022/01/10 07:29:11;;;;;;;85.15;35.70;;;;;;;;;;4902081;29;20036;-75
2022/01/10 07:31:38;;;;;;;76.43;33.45;;;;;;;;;;4900205;29;20055;-75
2022/01/10 07:34:05;;;;;;;82.05;35.03;;;;;;;;;;4918748;29;20040;-75
2022/01/10 07:36:31;;;;;;;82.47;34.83;;;;;;;;;;4901611;29;20024;-74
2022/01/10 07:38:57;;;;;;;87.32;35.60;;;;;;;;;;4901824;29;20510;-73
2022/01/10 07:41:23;;;;;;;82.65;34.72;;;;;;;;;;4901704;29;20043;-72
2022/01/10 07:43:49;;;;;;;85.88;34.95;;;;;;;;;;4901741;29;20035;-74
2022/01/10 07:46:17;;;;;;;80.00;34.72;;;;;;;;;;4901750;29;20028;-73
2022/01/10 07:48:44;;;;;;;82.25;34.13;;;;;;;;;;4901711;29;20059;-75
2022/01/10 07:51:11;;;;;;;79.30;34.70;;;;;;;;;;4918277;29;20106;-72
2022/01/10 07:53:38;;;;;;;77.22;34.33;;;;;;;;;;4901630;29;20095;-74
2022/01/10 07:56:04;;;;;;;83.50;36.17;;;;;;;;;;4901607;29;20049;-73
2022/01/10 07:58:31;;;;;;;80.35;33.75;;;;;;;;;;4901383;29;20031;-72
2022/01/10 08:00:59;;;;;;;80.40;34.50;;;;;;;;;;4901281;29;20130;-74
2022/01/10 08:03:26;;;;;;;78.93;33.90;;;;;;;;;;4901258;29;20035;-72
2022/01/10 08:05:52;;;;;;;78.47;33.67;;;;;;;;;;4918360;29;20111;-75
2022/01/10 08:08:18;;;;;;;79.57;34.67;;;;;;;;;;4901284;29;20374;-75
2022/01/10 08:10:44;;;;;;;81.13;33.92;;;;;;;;;;4915315;29;20095;-72
2022/01/10 08:13:10;;;;;;;67.20;32.28;;;;;;;;;;4937278;29;20082;-75
2022/01/10 08:15:36;;;;;;;83.10;33.28;;;;;;;;;;4937183;29;20465;-74
2022/01/10 08:18:03;;;;;;;68.32;31.27;;;;;;;;;;4919927;29;20037;-75
2022/01/10 08:20:29;;;;;;;76.80;34.42;;;;;;;;;;4924685;29;20489;-74
2022/01/10 08:22:55;;;;;;;81.35;37.33;;;;;;;;;;4935812;29;20039;-73
2022/01/10 08:25:21;;;;;;;70.15;32.83;;;;;;;;;;4935905;29;20028;-74
2022/01/10 08:27:48;;;;;;;68.78;30.23;;;;;;;;;;4939981;29;20035;-73
2022/01/10 08:30:14;;;;;;;70.97;29.40;;;;;;;;;;4940191;29;20027;-73
2022/01/10 08:32:40;;;;;;;71.97;32.90;;;;;;;;;;4936893;29;20369;-74
2022/01/10 08:35:06;;;;;;;75.20;31.17;;;;;;;;;;4935621;29;20031;-74
2022/01/10 08:37:33;;;;;;;64.43;28.63;;;;;;;;;;4935542;29;20054;-74
2022/01/10 08:39:59;;;;;;;54.95;26.40;;;;;;;;;;4936843;29;20126;-74
2022/01/10 08:42:28;;;;;;;56.17;26.52;;;;;;;;;;4935078;29;20047;-74
2022/01/10 08:44:55;;;;;;;54.33;25.52;;;;;;;;;;4935337;29;20087;-74
2022/01/10 08:47:21;;;;;;;56.80;24.92;;;;;;;;;;4935238;29;20119;-75
2022/01/10 08:49:47;;;;;;;72.30;26.77;;;;;;;;;;4935387;29;20107;-75
2022/01/10 08:52:13;;;;;;;85.97;26.50;;;;;;;;;;4936480;29;20024;-74
2022/01/10 08:54:40;;;;;;;63.50;24.52;;;;;;;;;;4935155;29;20031;-72
2022/01/10 08:57:07;;;;;;;71.97;23.42;;;;;;;;;;4935265;29;20032;-71
2022/01/10 08:59:33;;;;;;;67.65;24.42;;;;;;;;;;4936262;29;20032;-75
2022/01/10 09:02:00;;;;;;;63.20;22.65;;;;;;;;;;4934899;29;20039;-71
2022/01/10 09:04:26;;;;;;;54.60;22.13;;;;;;;;;;4935030;29;20074;-70
2022/01/10 09:06:54;;;;;;;40.95;19.70;;;;;;;;;;4935634;29;20079;-76
2022/01/10 09:09:21;;;;;;;56.45;20.88;;;;;;;;;;4936145;29;20020;-76
2022/01/10 09:11:47;;;;;;;45.45;17.83;;;;;;;;;;4935037;29;20420;-75
2022/01/10 09:14:14;;;;;;;38.83;15.65;;;;;;;;;;4936078;29;20024;-72
2022/01/10 09:16:41;;;;;;;43.38;15.68;;;;;;;;;;4936142;29;20039;-74
2022/01/10 09:19:07;;;;;;;25.40;9.95;;;;;;;;;;4934813;29;20023;-76
2022/01/10 09:21:34;;;;;;;18.38;7.97;;;;;;;;;;4935810;29;20553;-75
2022/01/10 09:24:00;;;;;;;18.00;7.93;;;;;;;;;;4936139;29;20023;-71
2022/01/10 09:26:26;;;;;;;27.35;10.77;;;;;;;;;;4918763;29;20032;-75
2022/01/10 09:28:52;;;;;;;13.57;6.95;;;;;;;;;;4936480;29;20034;-74
2022/01/10 09:31:19;;;;;;;17.02;6.50;;;;;;;;;;4919564;29;20023;-73
2022/01/10 09:33:52;;;;;;;24.45;8.70;;;;;;;;;;4919041;29;20056;-74
2022/01/10 09:36:18;;;;;;;15.32;6.78;;;;;;;;;;4919012;29;20149;-74
2022/01/10 09:38:44;;;;;;;15.98;7.63;;;;;;;;;;4918968;29;20079;-73
2022/01/10 09:41:10;;;;;;;19.55;7.45;;;;;;;;;;4935864;29;20078;-74
2022/01/10 09:43:36;;;;;;;19.50;7.05;;;;;;;;;;4918775;29;20116;-75
2022/01/10 09:46:02;;;;;;;18.27;7.68;;;;;;;;;;4936150;29;20064;-75
2022/01/10 09:48:28;;;;;;;15.55;7.25;;;;;;;;;;4935976;29;20019;-75
2022/01/10 09:50:55;;;;;;;22.02;8.88;;;;;;;;;;4918851;29;20391;-75
2022/01/10 09:53:21;;;;;;;20.92;10.15;;;;;;;;;;4918920;29;20119;-77
2022/01/10 09:55:48;;;;;;;18.85;8.50;;;;;;;;;;4922648;29;20032;-77
2022/01/10 09:58:14;;;;;;;20.67;9.70;;;;;;;;;;4922744;29;20027;-71
2022/01/10 10:00:40;;;;;;;19.67;8.93;;;;;;;;;;4922463;29;20032;-76
2022/01/10 10:03:07;;;;;;;19.58;9.27;;;;;;;;;;4939706;29;20034;-71
2022/01/10 10:05:34;;;;;;;21.08;9.13;;;;;;;;;;4922548;29;20031;-77
2022/01/10 10:08:00;;;;;;;22.90;8.95;;;;;;;;;;4922522;29;20028;-75
2022/01/10 10:10:29;;;;;;;17.58;8.23;;;;;;;;;;4927532;29;20032;-76
2022/01/10 10:12:56;;;;;;;19.27;8.30;;;;;;;;;;4920361;29;20075;-75
2022/01/10 10:15:27;;;;;;;18.75;8.50;;;;;;;;;;4903424;29;20032;-77
2022/01/10 10:17:54;;;;;;;22.02;10.93;;;;;;;;;;4927853;29;20076;-71
2022/01/10 10:20:21;;;;;;;25.30;12.45;;;;;;;;;;4905669;29;20048;-71
2022/01/10 10:22:49;;;;;;;24.42;10.57;;;;;;;;;;4903060;29;20525;-71
2022/01/10 10:25:16;;;;;;;21.20;9.75;;;;;;;;;;4920383;29;20398;-71
2022/01/10 10:27:44;;;;;;;20.50;10.32;;;;;;;;;;4903193;29;20391;-73
2022/01/10 10:30:19;;;;;;;19.30;9.55;;;;;;;;;;4903114;29;20055;-75
2022/01/10 10:32:46;;;;;;;16.45;8.20;;;;;;;;;;4902994;29;20028;-73
2022/01/10 10:35:12;;;;;;;17.88;7.90;;;;;;;;;;4919995;29;20032;-74
2022/01/10 10:37:40;;;;;;;14.57;7.97;;;;;;;;;;4909485;29;20389;-73
2022/01/10 10:40:09;;;;;;;17.50;8.57;;;;;;;;;;4938437;29;20075;-74
2022/01/10 10:42:37;;;;;;;15.02;7.25;;;;;;;;;;4937564;29;20032;-73
2022/01/10 10:45:06;;;;;;;12.63;7.25;;;;;;;;;;4938530;29;20038;-74
2022/01/10 10:47:33;;;;;;;14.05;7.60;;;;;;;;;;4921725;29;20366;-74
2022/01/10 10:50:01;;;;;;;12.93;7.00;;;;;;;;;;4921654;29;20065;-75
2022/01/10 10:52:31;;;;;;;16.73;8.02;;;;;;;;;;4921467;29;20095;-70
2022/01/10 10:55:01;;;;;;;15.77;8.20;;;;;;;;;;4921112;29;20436;-73
2022/01/10 10:57:28;;;;;;;15.98;8.35;;;;;;;;;;4902920;29;20024;-71
2022/01/10 10:59:55;;;;;;;18.42;9.30;;;;;;;;;;4919282;29;20091;-72
2022/01/10 11:02:21;;;;;;;19.95;9.98;;;;;;;;;;4902337;29;20040;-73
2022/01/10 11:04:47;;;;;;;20.73;9.90;;;;;;;;;;4919106;29;20028;-73
2022/01/10 11:07:16;;;;;;;21.55;11.13;;;;;;;;;;4919799;29;20129;-72
2022/01/10 11:09:43;;;;;;;18.70;9.38;;;;;;;;;;4919314;29;20469;-72
2022/01/10 11:12:09;;;;;;;21.50;11.07;;;;;;;;;;4902330;29;20059;-73
2022/01/10 11:14:35;;;;;;;21.40;10.52;;;;;;;;;;4902291;29;20437;-72
2022/01/10 11:17:02;;;;;;;21.67;10.50;;;;;;;;;;4902092;29;20032;-73
2022/01/10 11:19:28;;;;;;;21.15;10.60;;;;;;;;;;4902071;29;20032;-74
2022/01/10 11:22:05;;;;;;;20.88;11.00;;;;;;;;;;4902294;29;20122;-74
2022/01/10 11:24:42;;;;;;;22.73;10.75;;;;;;;;;;4902046;29;20080;-74
2022/01/10 11:27:26;;;;;;;21.27;10.25;;;;;;;;;;4902062;29;20374;-73
2022/01/10 11:29:55;;;;;;;21.10;10.02;;;;;;;;;;4919086;29;20024;-74
2022/01/10 11:32:21;;;;;;;20.75;10.65;;;;;;;;;;4909059;29;20026;-75
2022/01/10 11:34:48;;;;;;;21.52;11.00;;;;;;;;;;4920731;29;20060;-74
2022/01/10 11:37:15;;;;;;;23.55;10.90;;;;;;;;;;4937923;29;20119;-75
2022/01/10 11:39:42;;;;;;;20.98;11.00;;;;;;;;;;4937699;29;20040;-75
2022/01/10 11:42:28;;;;;;;21.92;9.93;;;;;;;;;;4919727;29;20059;-74
2022/01/10 11:45:10;;;;;;;21.90;10.27;;;;;;;;;;4936299;29;20071;-74
2022/01/10 11:47:55;;;;;;;24.35;11.93;;;;;;;;;;4917112;29;20032;-73
2022/01/10 11:50:26;;;;;;;21.33;10.98;;;;;;;;;;4920460;29;20032;-74
2022/01/10 11:52:54;;;;;;;24.55;11.27;;;;;;;;;;4920269;29;20055;-75
2022/01/10 11:55:30;;;;;;;22.42;9.73;;;;;;;;;;4920184;29;20032;-76
2022/01/10 11:58:22;;;;;;;21.48;10.80;;;;;;;;;;4937795;29;20103;-73
2022/01/10 12:00:50;;;;;;;22.33;11.35;;;;;;;;;;4917135;29;20058;-74
2022/01/10 12:03:17;;;;;;;22.20;9.65;;;;;;;;;;4937897;29;20031;-74
2022/01/10 12:05:43;;;;;;;22.23;10.43;;;;;;;;;;4937394;29;20503;-74
2022/01/10 12:08:09;;;;;;;21.95;10.55;;;;;;;;;;4926087;29;20034;-71
2022/01/10 12:10:35;;;;;;;23.75;10.73;;;;;;;;;;4925015;29;20031;-70
2022/01/10 12:13:03;;;;;;;22.58;10.02;;;;;;;;;;4919755;29;20039;-74
2022/01/10 12:15:32;;;;;;;21.23;9.65;;;;;;;;;;4920079;29;20038;-74
2022/01/10 12:17:58;;;;;;;18.83;9.38;;;;;;;;;;4919386;29;20031;-74
2022/01/10 12:20:24;;;;;;;20.55;9.60;;;;;;;;;;4924425;29;20424;-73
2022/01/10 12:23:00;;;;;;;22.20;10.18;;;;;;;;;;4935528;29;20043;-74
2022/01/10 12:25:27;;;;;;;22.30;10.50;;;;;;;;;;4936877;29;20111;-75
2022/01/10 12:28:00;;;;;;;21.48;9.85;;;;;;;;;;4937017;29;20031;-70
2022/01/10 12:30:26;;;;;;;;;;;;;;;;;;4937503;29;20028;-72
2022/01/10 12:32:52;;;;;;;19.73;9.18;;;;;;;;;;4943522;29;19929;-72
2022/01/10 12:35:19;;;;;;;22.02;10.07;;;;;;;;;;4935107;29;20027;-73
2022/01/10 12:37:45;;;;;;;21.25;9.65;;;;;;;;;;4935343;29;20031;-73
2022/01/10 12:40:14;;;;;;;22.90;10.25;;;;;;;;;;4935388;29;20119;-74
2022/01/10 12:42:40;;;;;;;23.63;10.68;;;;;;;;;;4936284;29;20046;-74
2022/01/10 12:45:06;;;;;;;31.00;14.32;;;;;;;;;;4935312;29;20354;-74
2022/01/10 12:47:32;;;;;;;32.67;14.68;;;;;;;;;;4936565;29;20042;-74
2022/01/10 12:49:58;;;;;;;27.02;13.60;;;;;;;;;;4935421;29;20024;-72
2022/01/10 12:52:25;;;;;;;33.85;15.32;;;;;;;;;;4935366;29;20391;-74
2022/01/10 12:54:51;;;;;;;29.45;14.77;;;;;;;;;;4936294;29;20063;-74
2022/01/10 12:57:17;;;;;;;30.00;13.25;;;;;;;;;;4936484;29;20110;-74
2022/01/10 12:59:44;;;;;;;30.50;14.68;;;;;;;;;;4935153;29;20024;-74
2022/01/10 13:02:10;;;;;;;31.30;15.27;;;;;;;;;;4935567;29;20486;-73
2022/01/10 13:04:40;;;;;;;30.08;14.07;;;;;;;;;;4936242;29;20024;-71
2022/01/10 13:07:08;;;;;;;34.80;14.77;;;;;;;;;;4935032;29;20027;-74
2022/01/10 13:09:35;;;;;;;30.70;14.30;;;;;;;;;;4936346;29;20035;-72
2022/01/10 13:12:12;;;;;;;30.60;15.43;;;;;;;;;;4934862;29;20027;-72
2022/01/10 13:14:38;;;;;;;36.25;15.60;;;;;;;;;;4936330;29;20497;-75
2022/01/10 13:17:08;;;;;;;34.72;16.50;;;;;;;;;;4936193;29;20039;-74
2022/01/10 13:19:36;;;;;;;32.55;16.65;;;;;;;;;;4935846;29;20058;-73
2022/01/10 13:22:06;;;;;;;36.20;17.17;;;;;;;;;;4918914;29;20086;-74
2022/01/10 13:24:34;;;;;;;34.00;16.20;;;;;;;;;;4918926;29;20031;-74
2022/01/10 13:27:04;;;;;;;34.33;15.25;;;;;;;;;;4935880;29;20078;-70
2022/01/10 13:29:59;;;;;;;35.65;16.85;;;;;;;;;;4935207;29;20035;-72
2022/01/10 13:32:26;;;;;;;40.47;16.40;;;;;;;;;;4913799;29;20031;-74
2022/01/10 13:35:04;;;;;;;34.10;15.63;;;;;;;;;;4935349;29;20433;-73
2022/01/10 13:37:35;;;;;;;35.70;16.52;;;;;;;;;;4935757;29;20091;-70
2022/01/10 13:40:20;;;;;;;37.30;16.40;;;;;;;;;;4935981;29;20031;-74
2022/01/10 13:42:50;;;;;;;35.67;16.23;;;;;;;;;;4935509;29;20095;-75
2022/01/10 13:45:40;;;;;;;39.50;16.73;;;;;;;;;;4918817;29;20027;-75
2022/01/10 13:48:07;;;;;;;37.85;15.02;;;;;;;;;;4908215;29;20036;-72
2022/01/10 13:50:34;;;;;;;39.40;17.88;;;;;;;;;;4935948;29;20023;-74
2022/01/10 13:53:03;;;;;;;37.45;18.42;;;;;;;;;;4918743;29;20032;-73
2022/01/10 13:55:29;;;;;;;39.70;18.30;;;;;;;;;;4935878;29;20107;-75
2022/01/10 13:57:55;;;;;;;38.75;16.77;;;;;;;;;;4940119;29;20031;-71
2022/01/10 14:00:23;;;;;;;38.45;17.52;;;;;;;;;;4946142;29;20039;-73
2022/01/10 14:02:50;;;;;;;43.28;18.05;;;;;;;;;;4918492;29;20620;-73
2022/01/10 14:05:20;;;;;;;42.58;20.13;;;;;;;;;;4936238;29;20159;-74
2022/01/10 14:07:46;;;;;;;37.35;17.35;;;;;;;;;;4918743;29;20508;-71
2022/01/10 14:10:12;;;;;;;43.55;17.73;;;;;;;;;;4918734;29;20042;-71
2022/01/10 14:12:38;;;;;;;44.90;19.17;;;;;;;;;;4918774;29;20504;-73
2022/01/10 14:15:05;;;;;;;48.00;18.67;;;;;;;;;;4935528;29;20040;-75
2022/01/10 14:17:31;;;;;;;40.03;17.60;;;;;;;;;;4935613;29;20024;-74
2022/01/10 14:19:57;;;;;;;40.92;18.27;;;;;;;;;;4918840;29;20449;-71
2022/01/10 14:22:24;;;;;;;40.45;16.60;;;;;;;;;;4918538;29;20130;-74
2022/01/10 14:24:50;;;;;;;37.85;16.38;;;;;;;;;;4934279;29;20028;-74
2022/01/10 14:27:16;;;;;;;38.95;16.98;;;;;;;;;;4934160;29;20042;-71